createdAt,value
2022-10-30T00:01:28.095Z,78.10
2022-10-30T00:03:56.774Z,78.40
2022-10-30T00:06:26.995Z,78.40
2022-10-30T00:08:55.840Z,78.70
2022-10-30T00:11:24.556Z,78.90
2022-10-30T00:13:53.266Z,79.10
2022-10-30T00:16:22.084Z,79.40
2022-10-30T00:18:50.825Z,79.50
2022-10-30T00:21:20.941Z,79.60
2022-10-30T00:23:52.748Z,79.80
2022-10-30T00:26:23.540Z,79.90
2022-10-30T00:28:52.605Z,79.90
2022-10-30T00:31:21.896Z,80.10
2022-10-30T00:33:54.960Z,80.20
2022-10-30T00:36:24.471Z,80.40
2022-10-30T00:38:54.616Z,80.50
2022-10-30T00:41:25.813Z,80.50
2022-10-30T00:43:57.181Z,80.60
2022-10-30T00:46:31.529Z,80.60
2022-10-30T00:49:19.141Z,80.80
2022-10-30T00:51:51.545Z,80.80
2022-10-30T00:54:23.534Z,81.00
2022-10-30T00:56:53.862Z,81.20
2022-10-30T00:59:27.132Z,81.40
2022-10-30T01:01:56.441Z,81.60
2022-10-30T01:04:29.919Z,81.50
2022-10-30T01:07:00.127Z,81.10
2022-10-30T01:09:30.377Z,80.20
2022-10-30T01:11:59.669Z,80.10
2022-10-30T01:14:28.426Z,80.10
2022-10-30T01:17:13.209Z,80.40
2022-10-30T01:19:47.032Z,80.40
2022-10-30T01:22:37.308Z,80.50
2022-10-30T01:25:16.415Z,80.40
2022-10-30T01:28:00.185Z,80.40
2022-10-30T01:30:44.944Z,80.00
2022-10-30T01:33:28.670Z,80.40
2022-10-30T01:36:04.936Z,80.40
2022-10-30T01:38:38.603Z,80.90
2022-10-30T01:41:08.957Z,81.20
2022-10-30T01:43:39.071Z,81.60
2022-10-30T01:46:36.956Z,81.80
2022-10-30T01:49:28.198Z,81.60
2022-10-30T01:52:06.784Z,81.20
2022-10-30T01:54:45.051Z,80.80
2022-10-30T01:57:21.327Z,80.70
2022-10-30T01:59:57.015Z,80.70
2022-10-30T02:02:26.027Z,81.80
2022-10-30T02:04:56.794Z,81.30
2022-10-30T02:07:28.798Z,81.60
2022-10-30T02:09:58.069Z,81.80
2022-10-30T02:12:31.570Z,82.10
2022-10-30T02:15:02.757Z,82.40
2022-10-30T02:17:31.740Z,82.70
2022-10-30T02:20:00.575Z,82.90
2022-10-30T02:22:30.730Z,83.20
2022-10-30T02:24:59.449Z,83.60
2022-10-30T02:27:28.288Z,83.90
2022-10-30T02:29:57.051Z,84.20
2022-10-30T02:32:26.254Z,84.50
2022-10-30T02:34:55.186Z,84.60
2022-10-30T02:37:24.524Z,85.00
2022-10-30T02:39:55.239Z,85.00
2022-10-30T02:42:24.546Z,85.00
2022-10-30T02:44:55.544Z,85.10
2022-10-30T02:47:24.278Z,85.10
2022-10-30T02:49:53.327Z,85.30
2022-10-30T02:52:22.094Z,86.10
2022-10-30T02:54:50.826Z,85.60
2022-10-30T02:57:21.089Z,85.70
2022-10-30T02:59:49.880Z,85.80
2022-10-30T03:02:18.648Z,86.00
2022-10-30T03:04:47.525Z,86.20
2022-10-30T03:07:16.175Z,86.30
2022-10-30T03:09:44.978Z,86.30
2022-10-30T03:12:13.813Z,86.40
2022-10-30T03:14:44.032Z,86.50
2022-10-30T03:17:12.889Z,86.60
2022-10-30T03:19:42.179Z,86.70
2022-10-30T03:22:11.306Z,86.80
2022-10-30T03:24:40.265Z,86.90
2022-10-30T03:27:09.115Z,87.00
2022-10-30T03:29:40.166Z,87.00
2022-10-30T03:32:12.407Z,87.20
2022-10-30T03:34:52.631Z,87.30
2022-10-30T03:37:21.556Z,87.30
2022-10-30T03:39:50.201Z,87.50
2022-10-30T03:42:22.236Z,87.70
2022-10-30T03:44:53.220Z,87.80
2022-10-30T03:47:23.431Z,87.80
2022-10-30T03:49:52.335Z,87.80
2022-10-30T03:52:22.560Z,87.80
2022-10-30T03:54:51.758Z,87.80
2022-10-30T03:57:21.781Z,87.80
2022-10-30T04:00:10.080Z,87.70
2022-10-30T04:02:55.567Z,87.80
2022-10-30T04:05:27.793Z,87.90
2022-10-30T04:07:58.854Z,88.00
2022-10-30T04:10:28.954Z,88.20
2022-10-30T04:13:02.593Z,88.40
2022-10-30T04:15:32.633Z,88.50
2022-10-30T04:18:03.795Z,88.60
2022-10-30T04:20:33.484Z,88.50
2022-10-30T04:23:04.343Z,88.30
2022-10-30T04:25:35.979Z,88.10
2022-10-30T04:28:05.589Z,87.90
2022-10-30T04:30:36.027Z,87.70
2022-10-30T04:33:09.222Z,87.70
2022-10-30T04:35:38.990Z,87.40
2022-10-30T04:38:14.577Z,87.50
2022-10-30T04:40:45.755Z,87.70
2022-10-30T04:43:15.964Z,87.80
2022-10-30T04:45:49.111Z,88.10
2022-10-30T04:48:20.208Z,88.20
2022-10-30T04:50:49.811Z,88.40
2022-10-30T04:53:27.277Z,88.60
2022-10-30T04:56:06.811Z,88.80
2022-10-30T04:58:35.602Z,88.90
2022-10-30T05:01:10.599Z,89.00
2022-10-30T05:03:40.994Z,89.20
2022-10-30T05:06:22.806Z,89.40
2022-10-30T05:08:52.017Z,89.60
2022-10-30T05:11:46.864Z,89.80
2022-10-30T05:14:15.780Z,90.00
2022-10-30T05:16:46.187Z,90.10
2022-10-30T05:19:16.680Z,90.20
2022-10-30T05:21:53.674Z,90.30
2022-10-30T05:24:22.783Z,90.40
2022-10-30T05:26:52.469Z,90.50
2022-10-30T05:29:21.358Z,90.60
2022-10-30T05:31:56.193Z,90.70
2022-10-30T05:35:08.440Z,90.70
2022-10-30T05:37:43.359Z,90.80
2022-10-30T05:40:16.181Z,90.90
2022-10-30T05:42:48.183Z,91.00
2022-10-30T05:45:17.840Z,90.60
2022-10-30T05:47:56.907Z,90.70
2022-10-30T05:50:28.689Z,90.80
2022-10-30T05:53:15.224Z,90.90
2022-10-30T05:55:45.318Z,91.10
2022-10-30T05:58:20.118Z,91.20
2022-10-30T06:00:50.454Z,91.30
2022-10-30T06:03:30.314Z,91.40
2022-10-30T06:06:00.778Z,91.50
2022-10-30T06:08:29.869Z,91.50
2022-10-30T06:11:01.705Z,91.60
2022-10-30T06:13:41.739Z,91.70
2022-10-30T06:16:12.708Z,91.70
2022-10-30T06:19:04.497Z,91.80
2022-10-30T06:21:35.745Z,91.90
2022-10-30T06:24:16.764Z,91.90
2022-10-30T06:27:04.901Z,92.00
2022-10-30T06:29:34.816Z,92.00
2022-10-30T06:32:06.538Z,92.00
2022-10-30T06:34:36.601Z,92.00
2022-10-30T06:37:06.906Z,92.10
2022-10-30T06:39:35.837Z,91.90
2022-10-30T06:42:30.629Z,92.00
2022-10-30T06:45:13.275Z,91.80
2022-10-30T06:47:42.525Z,91.70
2022-10-30T06:50:13.675Z,91.70
2022-10-30T06:52:44.443Z,91.70
2022-10-30T06:55:14.336Z,91.50
2022-10-30T06:57:56.750Z,91.40
2022-10-30T07:00:46.311Z,91.40
2022-10-30T07:03:47.361Z,91.30
2022-10-30T07:06:16.736Z,91.20
2022-10-30T07:08:48.220Z,91.00
2022-10-30T07:11:17.933Z,90.90
2022-10-30T07:14:11.500Z,90.80
2022-10-30T07:16:59.180Z,90.60
2022-10-30T07:19:29.410Z,90.50
2022-10-30T07:21:59.666Z,90.40
2022-10-30T07:24:30.042Z,90.30
2022-10-30T07:27:11.510Z,90.20
2022-10-30T07:29:47.329Z,90.10
2022-10-30T07:32:24.309Z,90.00
2022-10-30T07:35:32.071Z,89.30
2022-10-30T07:38:19.745Z,89.00
2022-10-30T07:40:56.785Z,88.70
2022-10-30T07:43:57.718Z,88.40
2022-10-30T07:46:38.366Z,88.00
2022-10-30T07:49:26.038Z,87.60
2022-10-30T07:51:59.866Z,87.00
2022-10-30T07:54:28.863Z,86.30
2022-10-30T07:57:02.174Z,85.40
2022-10-30T07:59:49.522Z,84.60
2022-10-30T08:02:41.380Z,84.30
2022-10-30T08:05:27.125Z,84.30
2022-10-30T08:08:13.996Z,82.70
2022-10-30T08:10:42.878Z,81.80
2022-10-30T08:13:32.070Z,81.20
2022-10-30T08:16:01.151Z,80.40
2022-10-30T08:18:30.040Z,79.60
2022-10-30T08:20:58.728Z,79.00
2022-10-30T08:23:27.515Z,78.50
2022-10-30T08:26:01.461Z,78.10
2022-10-30T08:28:34.285Z,77.60
2022-10-30T08:31:06.089Z,76.80
2022-10-30T08:34:04.613Z,75.60
2022-10-30T08:36:48.495Z,74.90
2022-10-30T08:39:18.586Z,74.80
2022-10-30T08:42:02.762Z,73.50
2022-10-30T08:44:38.942Z,69.80
2022-10-30T08:47:19.841Z,64.70
2022-10-30T08:49:49.422Z,60.50
2022-10-30T08:52:21.506Z,56.90
2022-10-30T08:54:56.218Z,53.60
2022-10-30T08:57:27.535Z,51.20
2022-10-30T09:00:00.200Z,48.30
2022-10-30T09:02:48.058Z,45.80
2022-10-30T09:05:40.363Z,43.70
2022-10-30T09:08:27.738Z,42.80
2022-10-30T09:11:08.561Z,42.30
2022-10-30T09:13:38.540Z,41.50
2022-10-30T09:16:10.587Z,40.30
2022-10-30T09:18:40.760Z,39.30
2022-10-30T09:21:09.709Z,38.50
2022-10-30T09:23:46.209Z,37.70
2022-10-30T09:26:40.917Z,36.10
2022-10-30T09:29:18.704Z,36.20
2022-10-30T09:32:01.664Z,35.80
2022-10-30T09:34:33.091Z,34.50
2022-10-30T09:37:24.657Z,34.30
2022-10-30T09:39:57.235Z,34.70
2022-10-30T09:42:47.889Z,34.10
2022-10-30T09:45:50.387Z,33.60
2022-10-30T09:48:46.489Z,33.30
2022-10-30T09:51:49.403Z,32.50
2022-10-30T09:54:35.829Z,32.60
2022-10-30T09:57:13.477Z,32.00
2022-10-30T09:59:53.124Z,32.00
2022-10-30T10:02:33.694Z,32.10
2022-10-30T10:05:08.381Z,31.70
2022-10-30T10:08:04.002Z,32.20
2022-10-30T10:11:02.772Z,32.80
2022-10-30T10:13:38.613Z,33.30
2022-10-30T10:16:15.081Z,32.90
2022-10-30T10:18:48.460Z,33.30
2022-10-30T10:21:25.763Z,33.30
2022-10-30T10:23:56.747Z,33.20
2022-10-30T10:26:30.470Z,33.30
2022-10-30T10:29:17.437Z,33.30
2022-10-30T10:31:52.774Z,32.90
2022-10-30T10:34:37.084Z,33.00
2022-10-30T10:37:19.369Z,33.00
2022-10-30T10:40:19.406Z,32.80
2022-10-30T10:42:56.878Z,32.60
2022-10-30T10:45:34.367Z,33.40
2022-10-30T10:48:26.868Z,33.80
2022-10-30T10:51:00.202Z,34.00
2022-10-30T10:53:36.786Z,33.90
2022-10-30T10:56:06.101Z,33.90
2022-10-30T10:58:40.842Z,33.60
2022-10-30T11:01:15.700Z,34.00
2022-10-30T11:03:54.191Z,34.90
2022-10-30T11:06:25.707Z,35.90
2022-10-30T11:09:04.221Z,37.30
2022-10-30T11:11:53.383Z,38.10
2022-10-30T11:14:23.995Z,39.40
2022-10-30T11:17:20.256Z,40.60
2022-10-30T11:19:53.253Z,41.50
2022-10-30T11:22:27.593Z,42.20
2022-10-30T11:24:57.806Z,42.80
2022-10-30T11:27:47.919Z,43.40
2022-10-30T11:30:21.743Z,44.00
2022-10-30T11:32:50.805Z,44.60
2022-10-30T11:35:21.680Z,45.30
2022-10-30T11:37:52.478Z,45.60
2022-10-30T11:40:24.601Z,46.00
2022-10-30T11:42:59.683Z,46.40
2022-10-30T11:45:30.585Z,46.60
2022-10-30T11:48:03.060Z,47.10
2022-10-30T11:50:34.242Z,47.60
2022-10-30T11:53:26.916Z,47.90
2022-10-30T11:55:59.914Z,47.90
2022-10-30T11:58:32.148Z,48.00
2022-10-30T12:01:04.322Z,48.10
2022-10-30T12:03:37.914Z,48.50
2022-10-30T12:06:13.162Z,48.70
2022-10-30T12:08:42.161Z,48.90
2022-10-30T12:11:12.350Z,49.20
2022-10-30T12:13:42.221Z,49.40
2022-10-30T12:16:17.346Z,49.20
2022-10-30T12:18:58.469Z,49.20
2022-10-30T12:21:28.303Z,49.20
2022-10-30T12:24:00.398Z,49.20
2022-10-30T12:26:31.751Z,49.70
2022-10-30T12:29:02.849Z,49.80
2022-10-30T12:31:39.809Z,49.90
2022-10-30T12:34:19.378Z,50.10
2022-10-30T12:36:57.369Z,50.00
2022-10-30T12:39:32.259Z,49.90
2022-10-30T12:42:08.185Z,50.20
2022-10-30T12:44:41.815Z,50.50
2022-10-30T12:47:19.445Z,50.40
2022-10-30T12:49:52.445Z,50.60
2022-10-30T12:52:47.523Z,50.40
2022-10-30T12:55:22.513Z,50.20
2022-10-30T12:58:04.437Z,50.10
2022-10-30T13:00:40.342Z,50.10
2022-10-30T13:03:32.538Z,50.10
2022-10-30T13:06:08.363Z,50.30
2022-10-30T13:08:41.384Z,50.30
2022-10-30T13:11:15.482Z,50.40
2022-10-30T13:13:49.859Z,50.70
2022-10-30T13:16:30.051Z,50.50
2022-10-30T13:19:02.322Z,50.60
2022-10-30T13:21:37.447Z,50.70
2022-10-30T13:24:12.451Z,51.00
2022-10-30T13:27:06.645Z,51.10
2022-10-30T13:29:44.853Z,51.30
2022-10-30T13:32:29.051Z,51.50
2022-10-30T13:35:03.029Z,51.70
2022-10-30T13:37:37.812Z,51.90
2022-10-30T13:40:16.253Z,52.00
2022-10-30T13:42:53.908Z,52.00
2022-10-30T13:45:42.312Z,51.90
2022-10-30T13:48:19.666Z,51.70
2022-10-30T13:51:11.673Z,52.00
2022-10-30T13:53:44.966Z,52.10
2022-10-30T13:56:18.613Z,52.30
2022-10-30T13:58:52.111Z,52.30
2022-10-30T14:01:25.768Z,52.40
2022-10-30T14:04:04.725Z,52.50
2022-10-30T14:06:43.585Z,52.60
2022-10-30T14:09:24.892Z,52.70
2022-10-30T14:11:55.578Z,52.80
2022-10-30T14:14:31.105Z,52.90
2022-10-30T14:17:13.666Z,53.10
2022-10-30T14:20:27.205Z,53.40
2022-10-30T14:23:10.195Z,53.70
2022-10-30T14:25:38.947Z,54.00
2022-10-30T14:28:15.562Z,54.20
2022-10-30T14:30:46.224Z,54.50
2022-10-30T14:33:39.595Z,54.70
2022-10-30T14:36:20.574Z,55.00
2022-10-30T14:39:00.225Z,55.40
2022-10-30T14:41:48.843Z,55.60
2022-10-30T14:44:25.514Z,55.80
2022-10-30T14:47:06.647Z,56.10
2022-10-30T14:49:47.453Z,56.40
2022-10-30T14:52:38.271Z,56.70
2022-10-30T14:55:28.417Z,56.90
2022-10-30T14:58:19.404Z,57.10
2022-10-30T15:00:48.664Z,57.40
2022-10-30T15:03:32.203Z,57.70
2022-10-30T15:06:08.591Z,58.00
2022-10-30T15:09:18.763Z,58.20
2022-10-30T15:12:03.833Z,58.30
2022-10-30T15:17:30.707Z,58.60
2022-10-30T15:20:03.084Z,58.90
2022-10-30T15:22:34.830Z,59.10
2022-10-30T15:25:06.658Z,59.40
2022-10-30T15:27:37.040Z,59.60
2022-10-30T15:30:07.785Z,59.90
2022-10-30T15:32:42.426Z,60.10
2022-10-30T15:35:17.193Z,60.50
2022-10-30T15:38:07.053Z,60.80
2022-10-30T15:40:37.784Z,61.20
2022-10-30T15:43:09.116Z,61.60
2022-10-30T15:45:41.497Z,62.00
2022-10-30T15:48:20.862Z,62.30
2022-10-30T15:51:00.152Z,62.70
2022-10-30T15:53:37.801Z,63.20
2022-10-30T15:56:13.593Z,63.40
2022-10-30T15:58:51.821Z,63.70
2022-10-30T16:01:31.442Z,63.90
2022-10-30T16:04:00.457Z,64.10
2022-10-30T16:06:30.978Z,64.40
2022-10-30T16:09:01.150Z,64.70
2022-10-30T16:11:30.706Z,64.80
2022-10-30T16:14:05.827Z,65.10
2022-10-30T16:16:35.201Z,65.30
2022-10-30T16:19:06.068Z,65.60
2022-10-30T16:21:35.792Z,65.80
2022-10-30T16:24:07.027Z,65.80
2022-10-30T16:26:37.629Z,66.10
2022-10-30T16:29:19.020Z,66.30
2022-10-30T16:34:48.251Z,66.90
2022-10-30T16:37:27.812Z,67.10
2022-10-30T16:39:58.781Z,67.40
2022-10-30T16:42:28.211Z,67.80
2022-10-30T16:45:37.837Z,68.00
2022-10-30T16:48:14.972Z,68.50
2022-10-30T16:50:44.142Z,68.70
2022-10-30T16:53:19.747Z,68.90
2022-10-30T16:55:50.302Z,69.20
2022-10-30T16:58:20.855Z,69.50
2022-10-30T17:00:54.957Z,69.70
2022-10-30T17:03:27.213Z,69.80
2022-10-30T17:06:02.270Z,69.90
2022-10-30T17:08:41.083Z,70.20
2022-10-30T17:11:19.385Z,70.40
2022-10-30T17:14:10.863Z,70.80
2022-10-30T17:16:41.689Z,71.10
2022-10-30T17:19:46.313Z,71.30
2022-10-30T17:22:20.578Z,71.80
2022-10-30T17:24:49.483Z,72.10
2022-10-30T17:27:47.341Z,72.30
2022-10-30T17:30:36.713Z,72.90
2022-10-30T17:33:25.019Z,73.10
2022-10-30T17:38:29.470Z,73.50
2022-10-30T17:40:58.749Z,74.50
2022-10-30T17:43:31.664Z,74.20
2022-10-30T17:46:00.383Z,74.60
2022-10-30T17:48:31.651Z,74.80
2022-10-30T17:51:00.421Z,75.10
2022-10-30T17:53:29.663Z,75.20
2022-10-30T17:56:02.819Z,75.50
2022-10-30T17:58:33.589Z,75.60
2022-10-30T18:01:02.632Z,75.70
2022-10-30T18:03:31.479Z,75.70
2022-10-30T18:06:02.238Z,75.80
2022-10-30T18:08:32.051Z,75.80
2022-10-30T18:11:00.764Z,76.00
2022-10-30T18:13:29.891Z,76.10
2022-10-30T18:16:00.699Z,76.20
2022-10-30T18:18:29.576Z,76.50
2022-10-30T18:20:58.599Z,76.60
2022-10-30T18:26:19.853Z,77.00
2022-10-30T18:28:49.222Z,77.90
2022-10-30T18:31:21.312Z,77.40
2022-10-30T18:33:50.374Z,77.50
2022-10-30T18:36:22.071Z,77.70
2022-10-30T18:38:52.825Z,77.90
2022-10-30T18:41:25.058Z,77.90
2022-10-30T18:43:54.012Z,78.00
2022-10-30T18:46:25.274Z,78.20
2022-10-30T18:48:54.095Z,78.50
2022-10-30T18:51:25.319Z,78.50
2022-10-30T18:53:57.342Z,78.70
2022-10-30T18:56:27.789Z,78.80
2022-10-30T18:59:01.768Z,79.00
2022-10-30T19:01:33.297Z,79.30
2022-10-30T19:04:04.708Z,79.40
2022-10-30T19:06:34.794Z,79.60
2022-10-30T19:09:03.758Z,79.70
2022-10-30T19:11:32.859Z,79.80
2022-10-30T19:14:01.696Z,79.90
2022-10-30T19:16:33.807Z,80.10
2022-10-30T19:19:02.692Z,80.10
2022-10-30T19:21:33.622Z,80.20
2022-10-30T19:24:04.135Z,80.40
2022-10-30T19:26:51.545Z,80.50
2022-10-30T19:29:20.364Z,80.50
2022-10-30T19:31:50.591Z,80.50
2022-10-30T19:34:19.497Z,80.60
2022-10-30T19:36:48.231Z,80.60
2022-10-30T19:39:18.031Z,80.70
2022-10-30T19:41:46.963Z,80.60
2022-10-30T19:44:15.733Z,80.20
2022-10-30T19:46:44.557Z,81.00
2022-10-30T19:49:20.533Z,81.90
2022-10-30T19:51:49.363Z,81.40
2022-10-30T19:54:24.113Z,81.50
2022-10-30T19:56:52.969Z,81.70
2022-10-30T19:59:22.031Z,81.80
2022-10-30T20:01:50.788Z,81.80
2022-10-30T20:04:21.117Z,81.90
2022-10-30T20:06:49.897Z,82.10
2022-10-30T20:09:18.628Z,82.20
2022-10-30T20:11:47.628Z,82.30
2022-10-30T20:14:16.345Z,82.30
2022-10-30T20:16:45.681Z,82.40
2022-10-30T20:19:29.102Z,82.50
2022-10-30T20:21:58.029Z,82.50
2022-10-30T20:24:27.060Z,82.50
2022-10-30T20:26:58.219Z,82.40
2022-10-30T20:29:27.014Z,82.50
2022-10-30T20:31:55.777Z,82.60
2022-10-30T20:34:26.012Z,83.50
2022-10-30T20:36:54.840Z,83.00
2022-10-30T20:39:23.557Z,83.00
2022-10-30T20:41:52.235Z,83.10
2022-10-30T20:44:21.004Z,83.20
2022-10-30T20:46:49.684Z,83.40
2022-10-30T20:49:18.596Z,83.40
2022-10-30T20:51:49.408Z,83.30
2022-10-30T20:54:18.891Z,83.40
2022-10-30T20:56:47.543Z,83.30
2022-10-30T20:59:16.429Z,83.20
2022-10-30T21:01:45.773Z,83.30
2022-10-30T21:04:17.755Z,83.40
2022-10-30T21:06:46.457Z,83.40
2022-10-30T21:09:16.795Z,83.50
2022-10-30T21:11:45.519Z,83.70
2022-10-30T21:14:14.257Z,83.70
2022-10-30T21:16:43.023Z,83.90
2022-10-30T21:19:11.685Z,83.90
2022-10-30T21:21:40.505Z,84.00
2022-10-30T21:24:10.730Z,84.00
2022-10-30T21:26:41.098Z,84.20
2022-10-30T21:29:10.218Z,84.30
2022-10-30T21:31:38.913Z,84.40
2022-10-30T21:34:07.631Z,84.40
2022-10-30T21:36:36.377Z,84.30
2022-10-30T21:39:05.833Z,84.10
2022-10-30T21:41:34.539Z,84.00
2022-10-30T21:44:04.850Z,84.10
2022-10-30T21:46:34.077Z,84.30
2022-10-30T21:49:08.960Z,84.50
2022-10-30T21:51:37.771Z,84.60
2022-10-30T21:54:06.513Z,84.70
2022-10-30T21:56:36.190Z,85.10
2022-10-30T21:59:09.663Z,85.30
2022-10-30T22:01:41.626Z,85.20
2022-10-30T22:04:12.569Z,84.80
2022-10-30T22:06:43.783Z,84.90
2022-10-30T22:09:15.545Z,85.10
2022-10-30T22:11:44.587Z,85.70
2022-10-30T22:14:14.685Z,85.20
2022-10-30T22:16:43.418Z,85.20
2022-10-30T22:19:12.233Z,86.40
2022-10-30T22:21:40.913Z,86.50
2022-10-30T22:24:09.965Z,86.80
2022-10-30T22:26:38.752Z,87.00
2022-10-30T22:29:07.452Z,87.10
2022-10-30T22:31:37.549Z,87.10
2022-10-30T22:34:06.476Z,87.20
2022-10-30T22:36:35.464Z,87.30
2022-10-30T22:39:06.517Z,87.50
2022-10-30T22:41:38.110Z,87.50
2022-10-30T22:44:09.083Z,87.50
2022-10-30T22:46:47.450Z,87.10
2022-10-30T22:49:17.560Z,86.90
2022-10-30T22:51:46.324Z,86.40
2022-10-30T22:54:15.028Z,85.90
2022-10-30T22:56:44.174Z,85.60
2022-10-30T22:59:14.325Z,85.80
2022-10-30T23:01:44.199Z,86.20
2022-10-30T23:04:16.227Z,86.50
2022-10-30T23:06:45.367Z,87.10
2022-10-30T23:09:18.501Z,87.50
2022-10-30T23:11:47.323Z,88.00
2022-10-30T23:14:16.664Z,88.40
2022-10-30T23:16:45.490Z,88.80
2022-10-30T23:19:15.798Z,88.90
2022-10-30T23:21:44.595Z,89.00
2022-10-30T23:24:13.308Z,89.20
2022-10-30T23:26:42.033Z,89.50
2022-10-30T23:29:10.783Z,89.80
2022-10-30T23:31:41.277Z,90.00
2022-10-30T23:34:12.153Z,90.00
2022-10-30T23:36:42.600Z,90.10
2022-10-30T23:39:14.965Z,90.20
2022-10-30T23:42:02.454Z,90.20
2022-10-30T23:44:31.181Z,90.30
2022-10-30T23:46:59.985Z,90.40
2022-10-30T23:49:33.175Z,90.30
2022-10-30T23:52:04.406Z,90.30
2022-10-30T23:54:33.206Z,90.30
2022-10-30T23:57:01.899Z,90.40
2022-10-30T23:59:30.659Z,90.40
